»·PEaware :: N648CR KCRQ-KMMH

N648CR :: KCRQ-KMMH

FLIGHT INFORMATION

Flight Status: Arrived
Operator: Privately registered:
United States
More flights under this callsign
Pilot: James D. (19799)
Aircraft: Unknown
(SF50)
More flights by this aircraft type
Origin: KCRQ McClellan-Palomar
United States
Destination: KMMH Mammoth Yosemite
United States
More flights between these airports :: More routes between these airports
Route: +
File this flight plan on PilotEdge
Remarks:
Altitude:
(Current/Filed)
0ft
Speed:
(Current/Filed)
0kts
Departed: 13-Aug-19 03:50 PM
Arrived: 13-Aug-19 04:23 PM
Distance/Time
Traveled:
330nm/0:32
Distance/Time
To Go:
Arrived

Flight Plot

Page will automatically refresh every two minutes.

Flight plan parsing failed; only flown route is shown


Map Options




Map Legend


Flown Route
Filed Route
Departure Airport
Arrival Airport
Navaid (VOR, NDB)
Fix

Horizontal Profiles

Position Reports

Time Latitude Longitude Heading Altitude Ground
Speed
13-Aug-19 15:31 37.627068 -118.844479 198 7121ft 0kts
13-Aug-19 15:32 37.627068 -118.844479 198 7121ft 0kts
13-Aug-19 15:33 37.627068 -118.844479 198 7121ft 0kts
13-Aug-19 15:34 37.627068 -118.844479 198 7121ft 0kts
13-Aug-19 15:35 37.627068 -118.844479 198 7121ft 0kts
13-Aug-19 15:36 37.627068 -118.844479 198 7121ft 0kts
13-Aug-19 15:37 37.627068 -118.844479 198 7121ft 0kts
13-Aug-19 15:38 37.627068 -118.844479 198 7121ft 0kts
13-Aug-19 15:39 37.627068 -118.844479 198 7121ft 0kts
13-Aug-19 15:40 37.627068 -118.844479 198 7121ft 0kts
13-Aug-19 15:41 37.627068 -118.844479 198 7121ft 0kts
13-Aug-19 15:42 37.627297 -118.845606 283 7125ft 0kts
13-Aug-19 15:43 37.626676 -118.845164 109 7124ft 13kts
13-Aug-19 15:44 37.624575 -118.837473 110 7102ft 27kts
13-Aug-19 15:45 37.623816 -118.834736 109 7094ft 15kts
13-Aug-19 15:46 37.621929 -118.827747 111 7070ft 9kts
13-Aug-19 15:47 37.621885 -118.827611 113 7069ft 0kts
13-Aug-19 15:48 37.621434 -118.827174 203 7066ft 1kts
13-Aug-19 15:49 37.622664 -118.833657 287 7092ft 83kts
13-Aug-19 15:50 37.640738 -118.870743 346 7657ft 186kts
13-Aug-19 15:51 37.696949 -118.896814 326 8715ft 247kts
13-Aug-19 15:52 37.759221 -118.946528 325 9739ft 278kts
13-Aug-19 15:53 37.826528 -119.000383 326 10523ft 295kts
13-Aug-19 15:54 37.893248 -119.053917 326 10501ft 276kts
13-Aug-19 15:55 37.957962 -119.103490 332 10501ft 269kts
13-Aug-19 15:56 38.024602 -119.145388 332 10502ft 266kts
13-Aug-19 15:57 38.090261 -119.188030 327 10501ft 265kts
13-Aug-19 15:58 38.155422 -119.237793 328 10501ft 279kts
13-Aug-19 15:59 38.222587 -119.288872 328 10496ft 284kts
13-Aug-19 16:00 38.291016 -119.341017 328 10430ft 288kts
13-Aug-19 16:02 38.359897 -119.393627 328 10831ft 293kts
13-Aug-19 16:03 38.430920 -119.447991 328 11736ft 301kts
13-Aug-19 16:04 38.502954 -119.503251 329 12396ft 301kts
13-Aug-19 16:05 38.571517 -119.555973 328 12349ft 281kts
13-Aug-19 16:06 38.639026 -119.608006 328 12358ft 286kts
13-Aug-19 16:07 38.707464 -119.660871 328 12344ft 288kts
13-Aug-19 16:08 38.775981 -119.713917 328 12371ft 287kts
13-Aug-19 16:09 38.844558 -119.767130 328 12382ft 288kts
13-Aug-19 16:10 38.912901 -119.820289 327 12408ft 284kts
13-Aug-19 16:11 38.977861 -119.870954 326 11455ft 264kts
13-Aug-19 16:12 39.039099 -119.918798 326 10459ft 252kts
13-Aug-19 16:13 39.097897 -119.964805 327 9447ft 238kts
13-Aug-19 16:14 39.152419 -120.007561 327 8435ft 227kts
13-Aug-19 16:15 39.208203 -120.051396 327 8144ft 240kts
13-Aug-19 16:16 39.265615 -120.085956 340 8165ft 198kts
13-Aug-19 16:17 39.304194 -120.105208 309 6726ft 111kts
13-Aug-19 16:18 39.317174 -120.135771 298 5889ft 69kts
13-Aug-19 16:19 39.319209 -120.142710 214 5890ft 7kts
13-Aug-19 16:20 39.318430 -120.142205 55 5890ft 1kts
13-Aug-19 16:21 39.318503 -120.142148 26 5890ft 0kts
13-Aug-19 16:22 39.318503 -120.142148 26 5890ft 0kts
13-Aug-19 16:22 37.621196 -118.828268 289 7070ft 29kts
13-Aug-19 16:24 37.647052 -118.871653 352 7783ft 196kts
13-Aug-19 16:25 37.704088 -118.902508 326 8834ft 252kts
13-Aug-19 16:25 37.756049 -118.943995 326 9690ft 277kts
13-Aug-19 16:27 37.834892 -119.007087 326 10507ft 292kts
13-Aug-19 16:28 37.900909 -119.060076 326 10501ft 274kts
13-Aug-19 16:28 37.954653 -119.101394 332 10502ft 269kts
13-Aug-19 16:30 38.032304 -119.150233 332 10501ft 266kts
13-Aug-19 16:30 38.087111 -119.185625 328 10502ft 265kts
13-Aug-19 16:31 38.151438 -119.234765 328 10501ft 278kts
13-Aug-19 16:33 38.224274 -119.290156 328 10496ft 284kts
13-Aug-19 16:33 38.281147 -119.333488 328 10441ft 287kts
13-Aug-19 16:34 38.350072 -119.386117 328 10703ft 292kts
13-Aug-19 16:35 38.356407 -119.390960 328 10785ft 293kts

Navigation Log

Ident Type
Flight plan parsing failed, navigation log unavailable